Time;durP1;ratioP1;P1;durP2;ratioP2;P2;SDS_P1;SDS_P2;PMS_P1;PMS_P2;Temp;Humidity;BMP_temperature;BMP_pressure;BME280_temperature;BME280_humidity;BME280_pressure;Samples;Min_cycle;Max_cycle;Signal;HPM_P1;HPM_P2
2024/01/15 00:01:32;;;;;;;;;;;;;;;-1.21;100.00;94365.34;10429849;28;2927;-67
2024/01/15 00:06:35;;;;;;;;;;;;;;;-1.09;100.00;94360.84;10428829;28;2954;-68
2024/01/15 00:11:38;;;;;;;;;;;;;;;-1.15;100.00;94375.78;10438264;28;2998;-71
2024/01/15 00:16:41;;;;;;;;;;;;;;;-1.27;100.00;94372.41;10444000;28;2960;-67
2024/01/15 00:21:43;;;;;;;;;;;;;;;-1.22;100.00;94380.38;10443736;28;3011;-65
2024/01/15 00:26:46;;;;;;;;;;;;;;;-1.32;100.00;94382.84;10438723;28;2930;-65
2024/01/15 00:31:48;;;;;;;;;;;;;;;-1.21;100.00;94382.00;10443380;28;2959;-67
2024/01/15 00:36:51;;;;;;;;;;;;;;;-1.14;100.00;94390.59;10437624;28;2950;-67
2024/01/15 00:41:53;;;;;;;;;;;;;;;-1.12;100.00;94395.63;10445611;28;2954;-66
2024/01/15 00:46:56;;;;;;;;;;;;;;;-1.10;100.00;94407.53;10444239;28;2902;-67
2024/01/15 00:51:58;;;;;;;;;;;;;;;-1.07;100.00;94405.47;10437349;28;3037;-67
2024/01/15 00:57:01;;;;;;;;;;;;;;;-1.19;100.00;94416.84;10442395;28;2986;-67
2024/01/15 01:02:03;;;;;;;;;;;;;;;-1.74;100.00;94419.91;10444463;28;2888;-67
2024/01/15 01:07:06;;;;;;;;;;;;;;;-1.93;100.00;94442.13;10438588;28;3108;-68
2024/01/15 01:12:09;;;;;;;;;;;;;;;-1.98;100.00;94420.94;10437238;28;2977;-65
2024/01/15 01:17:12;;;;;;;;;;;;;;;-2.06;100.00;94421.28;10442542;28;2906;-67
2024/01/15 01:22:14;;;;;;;;;;;;;;;-2.22;100.00;94426.19;10438121;28;2899;-65
2024/01/15 01:27:17;;;;;;;;;;;;;;;-2.27;100.00;94425.28;10410617;28;3120;-73
2024/01/15 01:32:19;;;;;;;;;;;;;;;-2.35;100.00;94431.66;10439044;28;2822;-66
2024/01/15 01:37:22;;;;;;;;;;;;;;;-2.42;100.00;94433.56;10440824;28;2903;-67
2024/01/15 01:42:24;;;;;;;;;;;;;;;-2.45;100.00;94444.56;10436828;28;2958;-67
2024/01/15 01:47:28;;;;;;;;;;;;;;;-2.56;100.00;94427.72;10444326;28;2958;-65
2024/01/15 01:52:30;;;;;;;;;;;;;;;-2.53;100.00;94431.75;10437858;28;3005;-66
2024/01/15 01:57:33;;;;;;;;;;;;;;;-2.58;100.00;94428.97;10441100;28;3032;-66
2024/01/15 02:02:36;;;;;;;;;;;;;;;-2.61;100.00;94434.66;10441988;28;3047;-68
2024/01/15 02:07:38;;;;;;;;;;;;;;;-2.62;100.00;94433.06;10437335;28;3033;-65
2024/01/15 02:12:41;;;;;;;;;;;;;;;-2.65;100.00;94446.69;10440918;28;2907;-66
2024/01/15 02:17:44;;;;;;;;;;;;;;;-2.73;100.00;94432.03;10433682;28;3357;-67
2024/01/15 02:22:47;;;;;;;;;;;;;;;-2.81;100.00;94438.38;10436019;28;2939;-66
2024/01/15 02:27:49;;;;;;;;;;;;;;;-2.86;100.00;94442.69;10438388;28;3028;-78
2024/01/15 02:32:52;;;;;;;;;;;;;;;-2.97;100.00;94440.84;10435105;28;2969;-66
2024/01/15 02:37:55;;;;;;;;;;;;;;;-3.03;100.00;94453.06;10435648;28;3140;-66
2024/01/15 02:42:58;;;;;;;;;;;;;;;-3.11;100.00;94472.56;10436016;28;3053;-67
2024/01/15 02:48:00;;;;;;;;;;;;;;;-3.13;100.00;94460.66;10438543;28;3246;-67
2024/01/15 02:53:03;;;;;;;;;;;;;;;-3.16;100.00;94450.59;10438911;28;2846;-67
2024/01/15 02:58:05;;;;;;;;;;;;;;;-3.02;100.00;94460.72;10440104;28;3160;-67
2024/01/15 03:03:08;;;;;;;;;;;;;;;-2.78;100.00;94474.78;10437771;28;3027;-68
2024/01/15 03:08:11;;;;;;;;;;;;;;;-2.71;100.00;94464.16;10427763;28;3048;-64
2024/01/15 03:13:14;;;;;;;;;;;;;;;-2.68;100.00;94461.06;10434831;28;3040;-68
2024/01/15 03:18:16;;;;;;;;;;;;;;;-2.59;100.00;94458.94;10436077;28;2977;-66
2024/01/15 03:23:19;;;;;;;;;;;;;;;-2.63;100.00;94453.31;10436814;28;2981;-67
2024/01/15 03:28:21;;;;;;;;;;;;;;;-2.64;100.00;94450.91;10440452;28;3002;-66
2024/01/15 03:33:24;;;;;;;;;;;;;;;-2.68;100.00;94450.56;10438657;28;3129;-67
2024/01/15 03:38:26;;;;;;;;;;;;;;;-2.77;100.00;94459.78;10446818;28;3005;-67
2024/01/15 03:43:29;;;;;;;;;;;;;;;-2.88;100.00;94463.97;10446865;28;3017;-67
2024/01/15 03:48:32;;;;;;;;;;;;;;;-2.80;100.00;94462.84;10449977;28;3108;-67
2024/01/15 03:53:35;;;;;;;;;;;;;;;-2.68;100.00;94460.28;10452018;28;2978;-66
2024/01/15 03:58:38;;;;;;;;;;;;;;;-2.62;100.00;94446.22;10450586;28;3041;-65
2024/01/15 04:03:41;;;;;;;;;;;;;;;-2.61;100.00;94453.91;10446560;28;2918;-66
2024/01/15 04:08:43;;;;;;;;;;;;;;;-2.61;100.00;94442.56;10447611;28;3025;-67
2024/01/15 04:13:46;;;;;;;;;;;;;;;-2.58;100.00;94439.50;10446084;28;3138;-65
2024/01/15 04:18:49;;;;;;;;;;;;;;;-2.51;100.00;94433.09;10442418;28;2806;-66
2024/01/15 04:23:51;;;;;;;;;;;;;;;-2.44;100.00;94433.00;10444690;28;2910;-65
2024/01/15 04:28:54;;;;;;;;;;;;;;;-2.49;100.00;94438.94;10439060;28;3033;-66
2024/01/15 04:33:56;;;;;;;;;;;;;;;-2.50;100.00;94436.53;10442558;28;3134;-68
2024/01/15 04:38:59;;;;;;;;;;;;;;;-2.43;100.00;94442.50;10442908;28;3010;-67
2024/01/15 04:44:02;;;;;;;;;;;;;;;-2.38;100.00;94432.09;10431870;28;2910;-70
2024/01/15 04:49:04;;;;;;;;;;;;;;;-2.50;100.00;94439.16;10443200;28;2982;-63
2024/01/15 04:54:07;;;;;;;;;;;;;;;-2.50;100.00;94431.28;10443779;28;3021;-66
2024/01/15 04:59:09;;;;;;;;;;;;;;;-2.49;100.00;94422.34;10444320;28;2842;-65
2024/01/15 05:04:12;;;;;;;;;;;;;;;-2.45;100.00;94431.41;10440320;28;2946;-65
2024/01/15 05:09:14;;;;;;;;;;;;;;;-2.48;100.00;94426.63;10439860;28;2907;-66
2024/01/15 05:14:17;;;;;;;;;;;;;;;-2.36;100.00;94424.78;10439007;28;3006;-66
2024/01/15 05:19:20;;;;;;;;;;;;;;;-2.34;100.00;94430.63;10443730;28;2930;-65
2024/01/15 05:24:22;;;;;;;;;;;;;;;-2.36;100.00;94423.97;10437355;28;2982;-64
2024/01/15 05:29:25;;;;;;;;;;;;;;;-2.37;100.00;94431.06;10439062;28;2888;-65
2024/01/15 05:34:28;;;;;;;;;;;;;;;-2.40;100.00;94426.28;10420835;28;3148;-66
2024/01/15 05:39:31;;;;;;;;;;;;;;;-2.38;100.00;94423.41;10437633;28;3454;-68
2024/01/15 05:44:33;;;;;;;;;;;;;;;-2.36;100.00;94422.16;10415942;28;2998;-66
2024/01/15 05:49:36;;;;;;;;;;;;;;;-2.34;100.00;94428.00;10436114;28;3112;-64
2024/01/15 05:54:38;;;;;;;;;;;;;;;-2.34;100.00;94429.84;10439526;28;3204;-66
2024/01/15 05:59:41;;;;;;;;;;;;;;;-2.29;100.00;94428.13;10438096;28;2994;-65
2024/01/15 06:04:44;;;;;;;;;;;;;;;-2.30;100.00;94421.25;10443533;28;2959;-65
2024/01/15 06:09:46;;;;;;;;;;;;;;;-2.34;100.00;94420.09;10441230;28;2945;-69
2024/01/15 06:14:49;;;;;;;;;;;;;;;-2.31;100.00;94417.00;10445636;28;2888;-70
2024/01/15 06:19:52;;;;;;;;;;;;;;;-2.32;100.00;94428.56;10446402;28;3112;-70
2024/01/15 06:24:56;;;;;;;;;;;;;;;-2.23;100.00;94424.59;10442304;28;3017;-69
2024/01/15 06:29:58;;;;;;;;;;;;;;;-2.21;100.00;94429.63;10447209;28;3080;-70
2024/01/15 06:35:01;;;;;;;;;;;;;;;-2.19;100.00;94420.47;10440674;28;2918;-68
2024/01/15 06:40:05;;;;;;;;;;;;;;;-2.17;100.00;94423.66;10432250;28;2968;-65
2024/01/15 06:45:08;;;;;;;;;;;;;;;-2.13;100.00;94425.84;10444263;28;2836;-66
2024/01/15 06:50:10;;;;;;;;;;;;;;;-2.11;100.00;94429.06;10441301;28;2989;-66
2024/01/15 06:55:13;;;;;;;;;;;;;;;-2.13;100.00;94426.66;10442028;28;2964;-67
2024/01/15 07:00:15;;;;;;;;;;;;;;;-2.06;100.00;94437.06;10443437;28;2974;-68
2024/01/15 07:05:18;;;;;;;;;;;;;;;-2.11;100.00;94432.47;10435032;28;2818;-67
2024/01/15 07:10:20;;;;;;;;;;;;;;;-2.07;100.00;94432.84;10448669;28;3068;-67
2024/01/15 07:15:23;;;;;;;;;;;;;;;-2.04;100.00;94424.47;10418369;28;3019;-66
2024/01/15 07:20:26;;;;;;;;;;;;;;;-2.02;100.00;94401.38;10436392;28;2930;-65
2024/01/15 07:25:28;;;;;;;;;;;;;;;-1.91;100.00;94397.91;10434449;28;3009;-67
2024/01/15 07:30:31;;;;;;;;;;;;;;;-1.85;100.00;94402.25;10440472;28;2918;-66
2024/01/15 07:35:33;;;;;;;;;;;;;;;-1.82;100.00;94401.81;10426847;28;3049;-66
2024/01/15 07:40:36;;;;;;;;;;;;;;;-1.77;100.00;94415.09;10428362;28;2954;-65
2024/01/15 07:45:39;;;;;;;;;;;;;;;-1.65;100.00;94428.28;10429395;28;3013;-66
2024/01/15 07:50:45;;;;;;;;;;;;;;;-1.58;100.00;94413.16;10431970;28;3021;-66
2024/01/15 07:55:48;;;;;;;;;;;;;;;-1.55;100.00;94406.59;10427203;28;2988;-63
2024/01/15 08:00:51;;;;;;;;;;;;;;;-1.47;100.00;94395.69;10433293;28;2814;-63
2024/01/15 08:05:55;;;;;;;;;;;;;;;-1.42;100.00;94385.25;10434726;28;2917;-66
2024/01/15 08:10:58;;;;;;;;;;;;;;;-1.32;100.00;94389.94;10432597;28;3088;-64
2024/01/15 08:16:01;;;;;;;;;;;;;;;-1.33;100.00;94372.53;10434309;28;3036;-65
2024/01/15 08:21:03;;;;;;;;;;;;;;;-1.40;100.00;94377.91;10440449;28;3265;-67
2024/01/15 08:26:06;;;;;;;;;;;;;;;-1.27;100.00;94374.19;10444111;28;2931;-68
2024/01/15 08:31:09;;;;;;;;;;;;;;;-1.28;100.00;94370.78;10439039;28;2977;-65
2024/01/15 08:36:11;;;;;;;;;;;;;;;-1.17;100.00;94372.56;10441804;28;3021;-64
2024/01/15 08:41:14;;;;;;;;;;;;;;;-1.31;100.00;94381.78;10435093;28;3132;-65
2024/01/15 08:46:16;;;;;;;;;;;;;;;-1.23;100.00;94378.78;10436699;28;2921;-65
2024/01/15 08:51:19;;;;;;;;;;;;;;;-1.26;100.00;94381.91;10435515;28;2880;-65
2024/01/15 08:56:22;;;;;;;;;;;;;;;-1.18;100.00;94396.53;10435614;28;2961;-66
2024/01/15 09:01:25;;;;;;;;;;;;;;;-1.10;100.00;94385.63;10433615;28;3044;-65
2024/01/15 09:06:28;;;;;;;;;;;;;;;-1.02;100.00;94400.25;10438815;28;2881;-64
2024/01/15 09:11:31;;;;;;;;;;;;;;;-1.00;100.00;94385.03;10441670;28;3065;-66
2024/01/15 09:16:34;;;;;;;;;;;;;;;-0.96;100.00;94394.06;10441648;28;3280;-67
2024/01/15 09:21:36;;;;;;;;;;;;;;;-0.88;100.00;94391.84;10441509;28;3081;-66
2024/01/15 09:26:39;;;;;;;;;;;;;;;-0.88;100.00;94383.16;10441610;28;3145;-67
2024/01/15 09:31:42;;;;;;;;;;;;;;;-0.87;100.00;94392.66;10415548;28;2916;-67
2024/01/15 09:36:45;;;;;;;;;;;;;;;-0.59;100.00;94395.25;10434642;28;2982;-68
2024/01/15 09:41:47;;;;;;;;;;;;;;;-0.69;100.00;94408.28;10435449;28;2962;-66
2024/01/15 09:46:50;;;;;;;;;;;;;;;-0.60;100.00;94393.66;10437522;28;3078;-65
2024/01/15 09:51:53;;;;;;;;;;;;;;;-0.62;100.00;94385.19;10427433;28;3049;-66
2024/01/15 09:57:07;;;;;;;;;;;;;;;-0.43;100.00;94398.19;10434377;28;2863;-67
2024/01/15 10:02:10;;;;;;;;;;;;;;;-0.32;100.00;94392.84;10433654;28;2933;-66
2024/01/15 10:07:12;;;;;;;;;;;;;;;-0.13;100.00;94374.06;10430058;28;3095;-68
2024/01/15 10:12:15;;;;;;;;;;;;;;;-0.07;100.00;94367.84;10436348;28;2874;-65
2024/01/15 10:17:18;;;;;;;;;;;;;;;0.07;100.00;94368.31;10434111;28;3012;-66
2024/01/15 10:22:20;;;;;;;;;;;;;;;-0.18;100.00;94358.97;10432563;28;3028;-64
2024/01/15 10:27:23;;;;;;;;;;;;;;;0.08;100.00;94346.13;10434851;28;2922;-65
2024/01/15 10:32:26;;;;;;;;;;;;;;;0.09;100.00;94334.53;10437044;28;2969;-66
2024/01/15 10:37:28;;;;;;;;;;;;;;;0.25;100.00;94323.09;10434981;28;3053;-68
2024/01/15 10:42:31;;;;;;;;;;;;;;;0.51;100.00;94319.75;10427565;28;3037;-73
2024/01/15 10:47:34;;;;;;;;;;;;;;;0.45;100.00;94320.75;10429702;28;3060;-66
2024/01/15 10:52:37;;;;;;;;;;;;;;;0.11;100.00;94327.16;10434130;28;3053;-66
2024/01/15 10:57:39;;;;;;;;;;;;;;;-0.14;100.00;94311.75;10437147;28;3247;-68
2024/01/15 11:02:42;;;;;;;;;;;;;;;-0.28;100.00;94317.34;10429901;28;2965;-66
2024/01/15 11:07:44;;;;;;;;;;;;;;;-0.01;100.00;94321.97;10433811;28;2984;-68
2024/01/15 11:12:46;;;;;;;;;;;;;;;0.23;100.00;94304.06;10433143;28;2930;-66
2024/01/15 11:17:49;;;;;;;;;;;;;;;0.66;100.00;94300.63;10432887;28;3028;-65
2024/01/15 11:22:52;;;;;;;;;;;;;;;0.85;100.00;94302.94;10438213;28;3012;-70
2024/01/15 11:27:55;;;;;;;;;;;;;;;0.43;100.00;94312.22;10435354;28;2966;-66
2024/01/15 11:32:58;;;;;;;;;;;;;;;-0.12;100.00;94307.84;10434114;28;3005;-65
2024/01/15 11:38:01;;;;;;;;;;;;;;;-0.42;100.00;94299.44;10436849;28;3067;-67
2024/01/15 11:43:04;;;;;;;;;;;;;;;-0.57;100.00;94297.38;10415142;28;2905;-67
2024/01/15 11:48:06;;;;;;;;;;;;;;;-0.54;100.00;94296.91;10429892;28;2910;-65
2024/01/15 11:53:09;;;;;;;;;;;;;;;-0.40;100.00;94289.44;10441287;28;3026;-63
2024/01/15 11:58:12;;;;;;;;;;;;;;;-0.30;100.00;94292.25;10442562;28;2920;-65
2024/01/15 12:03:14;;;;;;;;;;;;;;;-0.26;100.00;94277.50;10420161;28;2974;-64
2024/01/15 12:08:17;;;;;;;;;;;;;;;-0.15;100.00;94273.97;10442775;28;2966;-65
2024/01/15 12:13:20;;;;;;;;;;;;;;;0.06;100.00;94269.75;10433322;28;3041;-64
2024/01/15 12:18:23;;;;;;;;;;;;;;;0.50;100.00;94259.97;10438842;28;2854;-64
2024/01/15 12:23:27;;;;;;;;;;;;;;;1.11;100.00;94237.81;10439248;28;3044;-63
2024/01/15 12:28:30;;;;;;;;;;;;;;;1.11;100.00;94200.78;10440143;28;3024;-63
2024/01/15 12:33:32;;;;;;;;;;;;;;;0.73;100.00;94198.06;10441256;28;2974;-66
2024/01/15 12:38:35;;;;;;;;;;;;;;;0.59;100.00;94207.47;10437685;28;3029;-62
2024/01/15 12:43:37;;;;;;;;;;;;;;;0.59;100.00;94210.09;10437760;28;2970;-64
2024/01/15 12:48:40;;;;;;;;;;;;;;;0.80;100.00;94219.03;10443444;28;3101;-64
2024/01/15 12:53:43;;;;;;;;;;;;;;;1.26;100.00;94201.66;10436358;28;3024;-64
2024/01/15 12:58:46;;;;;;;;;;;;;;;1.50;100.00;94210.06;10440210;28;2936;-65
2024/01/15 13:03:49;;;;;;;;;;;;;;;1.46;100.00;94201.00;10440818;28;3067;-64
2024/01/15 13:08:52;;;;;;;;;;;;;;;1.32;100.00;94210.44;10445314;28;2930;-63
2024/01/15 13:13:54;;;;;;;;;;;;;;;1.25;100.00;94239.00;10434432;28;2974;-66
2024/01/15 13:18:58;;;;;;;;;;;;;;;1.44;100.00;94245.50;10421346;28;3035;-64
2024/01/15 13:24:03;;;;;;;;;;;;;;;1.39;100.00;94249.94;10423169;28;2941;-64
2024/01/15 13:29:05;;;;;;;;;;;;;;;1.19;100.00;94235.50;10430947;28;3017;-65
2024/01/15 13:34:09;;;;;;;;;;;;;;;1.30;100.00;94231.09;10436513;28;2982;-65
2024/01/15 13:39:11;;;;;;;;;;;;;;;1.18;100.00;94233.91;10431741;28;3158;-64
2024/01/15 13:44:14;;;;;;;;;;;;;;;1.11;100.00;94240.47;10433996;28;3139;-66
2024/01/15 13:49:17;;;;;;;;;;;;;;;0.65;100.00;94229.47;10434630;28;3003;-65
2024/01/15 13:54:20;;;;;;;;;;;;;;;0.56;100.00;94241.53;10438922;28;2972;-72
2024/01/15 13:59:25;;;;;;;;;;;;;;;0.57;100.00;94246.56;10430574;28;2869;-72
2024/01/15 14:04:28;;;;;;;;;;;;;;;0.67;100.00;94230.00;10435323;28;2961;-71
2024/01/15 14:09:31;;;;;;;;;;;;;;;0.53;100.00;94225.13;10437903;28;3560;-74
2024/01/15 14:14:34;;;;;;;;;;;;;;;0.44;100.00;94245.09;10441598;28;3134;-66
2024/01/15 14:19:37;;;;;;;;;;;;;;;0.42;100.00;94252.47;10434801;28;2978;-69
2024/01/15 14:24:39;;;;;;;;;;;;;;;0.29;100.00;94258.16;10432195;28;2991;-66
2024/01/15 14:29:42;;;;;;;;;;;;;;;0.19;100.00;94268.59;10438094;28;3020;-67
2024/01/15 14:34:44;;;;;;;;;;;;;;;0.13;100.00;94277.53;10432564;28;3001;-65
2024/01/15 14:39:47;;;;;;;;;;;;;;;-0.03;100.00;94279.16;10432945;28;2964;-65
2024/01/15 14:44:50;;;;;;;;;;;;;;;-0.05;100.00;94273.31;10436390;28;3204;-65
2024/01/15 14:49:52;;;;;;;;;;;;;;;-0.10;100.00;94276.69;10442921;28;2962;-69
2024/01/15 14:54:55;;;;;;;;;;;;;;;-0.07;100.00;94281.47;10440840;28;3075;-64
2024/01/15 14:59:58;;;;;;;;;;;;;;;-0.11;100.00;94275.09;10436909;28;3090;-64
2024/01/15 15:05:00;;;;;;;;;;;;;;;-0.11;100.00;94280.38;10437549;28;3002;-66
2024/01/15 15:10:04;;;;;;;;;;;;;;;-0.18;100.00;94284.22;10434754;28;3247;-66
2024/01/15 15:15:07;;;;;;;;;;;;;;;-0.10;100.00;94297.00;10434782;28;2992;-67
2024/01/15 15:20:13;;;;;;;;;;;;;;;-0.16;100.00;94296.13;10436085;28;2915;-69
2024/01/15 15:25:16;;;;;;;;;;;;;;;-0.30;100.00;94310.72;10437893;28;2958;-70
2024/01/15 15:30:18;;;;;;;;;;;;;;;-0.27;100.00;94328.72;10439895;28;2869;-69
2024/01/15 15:35:21;;;;;;;;;;;;;;;-0.31;100.00;94327.63;10413119;28;2920;-69
2024/01/15 15:40:24;;;;;;;;;;;;;;;-0.31;100.00;94335.53;10428889;28;2939;-65
2024/01/15 15:45:26;;;;;;;;;;;;;;;-0.30;100.00;94339.78;10432856;28;2890;-70
2024/01/15 15:50:29;;;;;;;;;;;;;;;-0.31;100.00;94348.75;10435503;28;2965;-70
2024/01/15 15:55:36;;;;;;;;;;;;;;;-0.42;100.00;94353.06;10426198;28;3020;-65
2024/01/15 16:00:39;;;;;;;;;;;;;;;-0.41;100.00;94370.50;10426485;28;2949;-66
2024/01/15 16:05:41;;;;;;;;;;;;;;;-0.49;100.00;94373.53;10430300;28;2873;-65
2024/01/15 16:10:55;;;;;;;;;;;;;;;-0.60;100.00;94400.78;10431784;28;2969;-66
2024/01/15 16:15:57;;;;;;;;;;;;;;;-0.76;100.00;94389.16;10430228;28;2919;-64
2024/01/15 16:21:20;;;;;;;;;;;;;;;-0.87;100.00;94417.19;10435624;28;2947;-65
2024/01/15 16:26:42;;;;;;;;;;;;;;;-0.92;100.00;94429.50;10430187;28;3200;-63
2024/01/15 16:31:46;;;;;;;;;;;;;;;-0.97;100.00;94426.75;10436307;28;2973;-65
2024/01/15 16:36:48;;;;;;;;;;;;;;;-0.97;100.00;94439.94;10432045;28;2978;-66
2024/01/15 16:41:51;;;;;;;;;;;;;;;-0.95;100.00;94437.88;10436396;28;2926;-66
2024/01/15 16:46:54;;;;;;;;;;;;;;;-0.55;100.00;94446.53;10442980;28;3046;-65
2024/01/15 16:52:01;;;;;;;;;;;;;;;-0.84;100.00;94445.72;10441871;28;2947;-64
2024/01/15 16:57:03;;;;;;;;;;;;;;;-0.77;100.00;94450.88;10442831;28;2934;-65
2024/01/15 17:02:06;;;;;;;;;;;;;;;-0.89;100.00;94464.13;10439680;28;3051;-65
2024/01/15 17:07:09;;;;;;;;;;;;;;;-0.89;100.00;94479.13;10431161;28;3083;-65
2024/01/15 17:12:11;;;;;;;;;;;;;;;-0.82;100.00;94479.81;10429127;28;2872;-65
2024/01/15 17:17:15;;;;;;;;;;;;;;;-0.91;100.00;94483.84;10434185;28;3155;-65
2024/01/15 17:22:18;;;;;;;;;;;;;;;-0.92;100.00;94498.88;10434437;28;3073;-65
2024/01/15 17:27:21;;;;;;;;;;;;;;;-1.03;100.00;94504.16;10438327;28;2874;-65
2024/01/15 17:32:24;;;;;;;;;;;;;;;-1.46;100.00;94532.53;10452845;28;2254;-64
2024/01/15 17:37:27;;;;;;;;;;;;;;;-2.31;100.00;94559.16;10456397;28;1794;-66
2024/01/15 17:42:29;;;;;;;;;;;;;;;-2.61;100.00;94551.25;10447970;28;1922;-65
2024/01/15 17:47:32;;;;;;;;;;;;;;;-2.84;100.00;94559.81;10456882;28;2183;-66
2024/01/15 17:52:36;;;;;;;;;;;;;;;-2.91;100.00;94564.34;10456820;28;1450;-70
2024/01/15 17:57:38;;;;;;;;;;;;;;;-2.88;100.00;94582.31;10447482;28;1519;-65
2024/01/15 18:02:41;;;;;;;;;;;;;;;-2.89;100.00;94587.78;10445693;28;1911;-65
2024/01/15 18:07:44;;;;;;;;;;;;;;;-2.92;100.00;94591.66;10457908;28;2382;-64
2024/01/15 18:12:46;;;;;;;;;;;;;;;-2.86;100.00;94595.22;10448726;28;1837;-68
2024/01/15 18:17:49;;;;;;;;;;;;;;;-2.86;100.00;94600.47;10458309;28;1433;-64
2024/01/15 18:22:53;;;;;;;;;;;;;;;-2.81;100.00;94604.06;10460856;28;2222;-68
2024/01/15 18:27:55;;;;;;;;;;;;;;;-2.91;100.00;94609.06;10446627;28;1752;-70
2024/01/15 18:32:58;;;;;;;;;;;;;;;-2.86;100.00;94606.56;10459906;28;1490;-71
2024/01/15 18:38:01;;;;;;;;;;;;;;;-2.77;100.00;94615.78;10451242;28;2515;-67
2024/01/15 18:43:04;;;;;;;;;;;;;;;-2.77;100.00;94615.78;10453086;28;1926;-67
2024/01/15 18:48:10;;;;;;;;;;;;;;;-2.81;100.00;94616.41;10446398;28;1822;-66
2024/01/15 18:53:13;;;;;;;;;;;;;;;-2.87;100.00;94615.47;10445950;28;2345;-66
2024/01/15 18:58:16;;;;;;;;;;;;;;;-2.96;100.00;94621.25;10454544;28;1565;-65
2024/01/15 19:03:19;;;;;;;;;;;;;;;-3.08;100.00;94629.84;10446338;28;1985;-65
2024/01/15 19:08:21;;;;;;;;;;;;;;;-3.14;100.00;94643.84;10448043;28;1612;-66
2024/01/15 19:13:24;;;;;;;;;;;;;;;-3.21;100.00;94645.72;10451365;28;1513;-65
2024/01/15 19:18:27;;;;;;;;;;;;;;;-3.25;100.00;94647.16;10449599;28;1514;-65
2024/01/15 19:23:30;;;;;;;;;;;;;;;-3.27;100.00;94650.03;10446035;28;1766;-67
2024/01/15 19:28:32;;;;;;;;;;;;;;;-3.21;100.00;94658.06;10453227;28;1480;-66
2024/01/15 19:33:35;;;;;;;;;;;;;;;-3.25;100.00;94649.78;10447199;28;1574;-66
2024/01/15 19:38:39;;;;;;;;;;;;;;;-3.33;100.00;94669.28;10458029;28;2440;-65
2024/01/15 19:43:42;;;;;;;;;;;;;;;-3.38;100.00;94678.81;10447052;28;1648;-66
2024/01/15 19:48:45;;;;;;;;;;;;;;;-3.45;100.00;94697.25;10443440;28;1487;-65
2024/01/15 19:53:48;;;;;;;;;;;;;;;-3.47;100.00;94688.00;10444885;28;1572;-66
2024/01/15 19:58:50;;;;;;;;;;;;;;;-3.53;100.00;94692.28;10443297;28;1904;-66
2024/01/15 20:03:53;;;;;;;;;;;;;;;-3.57;100.00;94701.56;10443341;28;1502;-72
2024/01/15 20:08:57;;;;;;;;;;;;;;;-3.63;100.00;94707.69;10452184;28;1854;-68
2024/01/15 20:13:59;;;;;;;;;;;;;;;-3.69;100.00;94719.84;10448533;28;1551;-66
2024/01/15 20:19:02;;;;;;;;;;;;;;;-3.66;100.00;94729.13;10459985;28;2220;-65
2024/01/15 20:24:04;;;;;;;;;;;;;;;-3.79;100.00;94744.94;10460032;28;1426;-66
2024/01/15 20:29:07;;;;;;;;;;;;;;;-3.76;100.00;94755.03;10454748;28;1582;-65
2024/01/15 20:34:10;;;;;;;;;;;;;;;-3.76;100.00;94749.78;10454901;28;1716;-68
2024/01/15 20:39:13;;;;;;;;;;;;;;;-3.75;100.00;94767.97;10458839;28;2519;-65
2024/01/15 20:44:17;;;;;;;;;;;;;;;-3.77;100.00;94769.97;10461229;28;1345;-67
2024/01/15 20:49:20;;;;;;;;;;;;;;;-3.87;100.00;94778.31;10456609;28;1517;-67
2024/01/15 20:54:23;;;;;;;;;;;;;;;-4.03;100.00;94789.28;10450176;28;1533;-66
2024/01/15 20:59:25;;;;;;;;;;;;;;;-3.97;100.00;94801.56;10433016;28;1976;-66
2024/01/15 21:04:28;;;;;;;;;;;;;;;-4.03;100.00;94812.09;10454132;28;2455;-69
2024/01/15 21:09:32;;;;;;;;;;;;;;;-4.09;100.00;94821.59;10426455;28;3087;-67
2024/01/15 21:14:36;;;;;;;;;;;;;;;-4.13;100.00;94820.41;10438853;28;3049;-67
2024/01/15 21:19:39;;;;;;;;;;;;;;;-4.13;100.00;94836.97;10438228;28;2988;-65
2024/01/15 21:24:41;;;;;;;;;;;;;;;-4.04;100.00;94840.16;10434841;28;2872;-67
2024/01/15 21:29:44;;;;;;;;;;;;;;;-4.03;100.00;94847.00;10440741;28;3279;-66
2024/01/15 21:34:47;;;;;;;;;;;;;;;-4.04;100.00;94850.66;10436461;28;3041;-67
2024/01/15 21:39:49;;;;;;;;;;;;;;;-3.99;100.00;94856.09;10437082;28;2915;-65
2024/01/15 21:44:52;;;;;;;;;;;;;;;-3.95;100.00;94853.84;10429811;28;2981;-66
2024/01/15 21:49:55;;;;;;;;;;;;;;;-3.99;100.00;94868.44;10434966;28;2957;-66
2024/01/15 21:54:57;;;;;;;;;;;;;;;-3.96;100.00;94860.94;10445953;28;3021;-67
2024/01/15 22:00:00;;;;;;;;;;;;;;;-3.86;100.00;94869.19;10434499;28;2997;-64
2024/01/15 22:05:03;;;;;;;;;;;;;;;-3.70;100.00;94875.00;10434327;28;2912;-64
2024/01/15 22:10:07;;;;;;;;;;;;;;;-3.43;100.00;94863.41;10433787;28;3072;-65
2024/01/15 22:15:09;;;;;;;;;;;;;;;-3.28;100.00;94866.56;10436262;28;3020;-66
2024/01/15 22:20:12;;;;;;;;;;;;;;;-3.13;100.00;94863.63;10432780;28;3141;-65
2024/01/15 22:25:15;;;;;;;;;;;;;;;-3.06;100.00;94860.97;10431629;28;2919;-65
2024/01/15 22:30:17;;;;;;;;;;;;;;;-3.10;100.00;94862.41;10430031;28;3037;-66
2024/01/15 22:35:20;;;;;;;;;;;;;;;-3.03;100.00;94863.19;10429750;28;2969;-65
2024/01/15 22:40:23;;;;;;;;;;;;;;;-2.98;100.00;94867.81;10435155;28;3126;-64
2024/01/15 22:45:25;;;;;;;;;;;;;;;-3.03;100.00;94866.63;10434170;28;2941;-66
2024/01/15 22:50:28;;;;;;;;;;;;;;;-3.04;100.00;94866.84;10436351;28;3009;-65
2024/01/15 22:55:31;;;;;;;;;;;;;;;-2.98;100.00;94871.25;10434880;28;2767;-64
2024/01/15 23:00:33;;;;;;;;;;;;;;;-2.96;100.00;94863.94;10432300;28;2939;-65
2024/01/15 23:05:36;;;;;;;;;;;;;;;-2.98;100.00;94873.88;10431962;28;3042;-66
2024/01/15 23:10:39;;;;;;;;;;;;;;;-2.98;100.00;94889.66;10438180;28;2921;-65
2024/01/15 23:15:43;;;;;;;;;;;;;;;-2.95;100.00;94899.75;10427569;28;2822;-65
2024/01/15 23:20:45;;;;;;;;;;;;;;;-2.97;100.00;94890.47;10418988;28;3004;-66
2024/01/15 23:25:48;;;;;;;;;;;;;;;-2.96;100.00;94906.03;10433928;28;3177;-65
2024/01/15 23:30:51;;;;;;;;;;;;;;;-2.88;100.00;94903.13;10435049;28;3197;-65
2024/01/15 23:35:53;;;;;;;;;;;;;;;-2.90;100.00;94912.25;10430567;28;3116;-66
2024/01/15 23:40:58;;;;;;;;;;;;;;;-2.83;100.00;94919.09;10423790;28;3021;-66
2024/01/15 23:46:01;;;;;;;;;;;;;;;-2.85;100.00;94918.50;10428817;28;3048;-66
2024/01/15 23:51:15;;;;;;;;;;;;;;;-2.88;100.00;94921.53;10438670;28;2977;-66
2024/01/15 23:56:18;;;;;;;;;;;;;;;-2.92;100.00;94928.25;10440472;28;2817;-67
